sensor_id;sensor_type;location;lat;lon;timestamp;temperature;humidity
6496;DHT22;3281;47.658;9.166;2023-06-01T00:00:51;15.80;1.00
6496;DHT22;3281;47.658;9.166;2023-06-01T00:03:21;15.80;1.00
6496;DHT22;3281;47.658;9.166;2023-06-01T00:05:48;15.90;1.00
6496;DHT22;3281;47.658;9.166;2023-06-01T00:08:15;15.80;1.00
6496;DHT22;3281;47.658;9.166;2023-06-01T00:10:43;15.70;1.00
6496;DHT22;3281;47.658;9.166;2023-06-01T00:13:09;15.60;1.00
6496;DHT22;3281;47.658;9.166;2023-06-01T00:15:36;15.50;1.00
6496;DHT22;3281;47.658;9.166;2023-06-01T00:18:03;15.50;1.00
6496;DHT22;3281;47.658;9.166;2023-06-01T00:20:31;15.50;1.00
6496;DHT22;3281;47.658;9.166;2023-06-01T00:22:57;15.40;1.00
6496;DHT22;3281;47.658;9.166;2023-06-01T00:25:25;15.40;1.00
6496;DHT22;3281;47.658;9.166;2023-06-01T00:27:53;15.40;1.00
6496;DHT22;3281;47.658;9.166;2023-06-01T00:30:21;15.40;1.00
6496;DHT22;3281;47.658;9.166;2023-06-01T00:32:48;15.40;1.00
6496;DHT22;3281;47.658;9.166;2023-06-01T00:35:14;15.40;1.00
6496;DHT22;3281;47.658;9.166;2023-06-01T00:37:41;15.40;1.00
6496;DHT22;3281;47.658;9.166;2023-06-01T00:40:09;15.40;1.00
6496;DHT22;3281;47.658;9.166;2023-06-01T00:42:35;15.40;1.00
6496;DHT22;3281;47.658;9.166;2023-06-01T00:45:05;15.30;1.00
6496;DHT22;3281;47.658;9.166;2023-06-01T00:47:38;15.30;1.00
6496;DHT22;3281;47.658;9.166;2023-06-01T00:50:06;15.20;1.00
6496;DHT22;3281;47.658;9.166;2023-06-01T00:52:32;15.30;1.00
6496;DHT22;3281;47.658;9.166;2023-06-01T00:54:59;15.20;1.00
6496;DHT22;3281;47.658;9.166;2023-06-01T00:57:26;15.10;1.00
6496;DHT22;3281;47.658;9.166;2023-06-01T00:59:54;15.10;1.00
6496;DHT22;3281;47.658;9.166;2023-06-01T01:02:22;15.10;1.00
6496;DHT22;3281;47.658;9.166;2023-06-01T01:04:49;15.10;1.00
6496;DHT22;3281;47.658;9.166;2023-06-01T01:07:23;15.00;1.00
6496;DHT22;3281;47.658;9.166;2023-06-01T01:09:56;15.10;1.00
6496;DHT22;3281;47.658;9.166;2023-06-01T01:12:28;15.20;1.00
6496;DHT22;3281;47.658;9.166;2023-06-01T01:15:01;15.20;1.00
6496;DHT22;3281;47.658;9.166;2023-06-01T01:17:37;15.10;1.00
6496;DHT22;3281;47.658;9.166;2023-06-01T01:20:10;15.10;1.00
6496;DHT22;3281;47.658;9.166;2023-06-01T01:23:06;15.10;1.00
6496;DHT22;3281;47.658;9.166;2023-06-01T01:25:52;15.20;1.00
6496;DHT22;3281;47.658;9.166;2023-06-01T01:28:32;15.20;1.00
6496;DHT22;3281;47.658;9.166;2023-06-01T01:31:04;15.10;1.00
6496;DHT22;3281;47.658;9.166;2023-06-01T01:33:32;15.10;1.00
6496;DHT22;3281;47.658;9.166;2023-06-01T01:35:59;15.10;1.00
6496;DHT22;3281;47.658;9.166;2023-06-01T01:38:27;15.00;1.00
6496;DHT22;3281;47.658;9.166;2023-06-01T01:40:53;14.90;1.00
6496;DHT22;3281;47.658;9.166;2023-06-01T01:43:22;14.90;1.00
6496;DHT22;3281;47.658;9.166;2023-06-01T01:45:54;14.90;1.00
6496;DHT22;3281;47.658;9.166;2023-06-01T01:48:31;15.00;1.00
6496;DHT22;3281;47.658;9.166;2023-06-01T01:51:03;14.90;1.00
6496;DHT22;3281;47.658;9.166;2023-06-01T01:53:30;14.90;1.00
6496;DHT22;3281;47.658;9.166;2023-06-01T01:55:58;14.80;1.00
6496;DHT22;3281;47.658;9.166;2023-06-01T01:58:26;14.80;1.00
6496;DHT22;3281;47.658;9.166;2023-06-01T02:00:55;14.80;1.00
6496;DHT22;3281;47.658;9.166;2023-06-01T02:03:22;14.70;1.00
6496;DHT22;3281;47.658;9.166;2023-06-01T02:05:49;14.60;1.00
6496;DHT22;3281;47.658;9.166;2023-06-01T02:08:16;14.60;1.00
6496;DHT22;3281;47.658;9.166;2023-06-01T02:10:42;14.60;1.00
6496;DHT22;3281;47.658;9.166;2023-06-01T02:13:09;14.50;1.00
6496;DHT22;3281;47.658;9.166;2023-06-01T02:15:36;14.60;1.00
6496;DHT22;3281;47.658;9.166;2023-06-01T02:18:04;14.50;1.00
6496;DHT22;3281;47.658;9.166;2023-06-01T02:20:32;14.40;1.00
6496;DHT22;3281;47.658;9.166;2023-06-01T02:22:59;14.40;1.00
6496;DHT22;3281;47.658;9.166;2023-06-01T02:25:26;14.30;1.00
6496;DHT22;3281;47.658;9.166;2023-06-01T02:27:52;14.30;1.00
6496;DHT22;3281;47.658;9.166;2023-06-01T02:30:19;14.40;1.00
6496;DHT22;3281;47.658;9.166;2023-06-01T02:32:46;14.40;1.00
6496;DHT22;3281;47.658;9.166;2023-06-01T02:35:15;14.40;1.00
6496;DHT22;3281;47.658;9.166;2023-06-01T02:37:41;14.30;1.00
6496;DHT22;3281;47.658;9.166;2023-06-01T02:40:09;14.30;1.00
6496;DHT22;3281;47.658;9.166;2023-06-01T02:42:37;14.30;1.00
6496;DHT22;3281;47.658;9.166;2023-06-01T02:45:04;14.30;1.00
6496;DHT22;3281;47.658;9.166;2023-06-01T02:47:31;14.30;1.00
6496;DHT22;3281;47.658;9.166;2023-06-01T02:49:58;14.30;1.00
6496;DHT22;3281;47.658;9.166;2023-06-01T02:52:26;14.30;1.00
6496;DHT22;3281;47.658;9.166;2023-06-01T02:54:53;14.20;1.00
6496;DHT22;3281;47.658;9.166;2023-06-01T02:57:19;14.20;1.00
6496;DHT22;3281;47.658;9.166;2023-06-01T02:59:46;14.10;1.00
6496;DHT22;3281;47.658;9.166;2023-06-01T03:02:13;14.10;1.00
6496;DHT22;3281;47.658;9.166;2023-06-01T03:04:40;14.00;1.00
6496;DHT22;3281;47.658;9.166;2023-06-01T03:07:06;14.00;1.00
6496;DHT22;3281;47.658;9.166;2023-06-01T03:09:34;14.00;1.00
6496;DHT22;3281;47.658;9.166;2023-06-01T03:12:01;14.00;1.00
6496;DHT22;3281;47.658;9.166;2023-06-01T03:14:28;14.00;1.00
6496;DHT22;3281;47.658;9.166;2023-06-01T03:16:55;14.00;1.00
6496;DHT22;3281;47.658;9.166;2023-06-01T03:19:22;14.10;1.00
6496;DHT22;3281;47.658;9.166;2023-06-01T03:21:48;14.00;1.00
6496;DHT22;3281;47.658;9.166;2023-06-01T03:24:15;14.00;1.00
6496;DHT22;3281;47.658;9.166;2023-06-01T03:26:44;14.00;1.00
6496;DHT22;3281;47.658;9.166;2023-06-01T03:29:11;14.00;1.00
6496;DHT22;3281;47.658;9.166;2023-06-01T03:31:37;14.00;1.00
6496;DHT22;3281;47.658;9.166;2023-06-01T03:34:05;14.00;1.00
6496;DHT22;3281;47.658;9.166;2023-06-01T03:36:31;14.00;1.00
6496;DHT22;3281;47.658;9.166;2023-06-01T03:38:58;14.00;1.00
6496;DHT22;3281;47.658;9.166;2023-06-01T03:41:25;14.10;1.00
6496;DHT22;3281;47.658;9.166;2023-06-01T03:43:53;14.10;1.00
6496;DHT22;3281;47.658;9.166;2023-06-01T03:46:20;14.00;1.00
6496;DHT22;3281;47.658;9.166;2023-06-01T03:48:47;13.90;1.00
6496;DHT22;3281;47.658;9.166;2023-06-01T03:51:14;14.10;1.00
6496;DHT22;3281;47.658;9.166;2023-06-01T03:53:40;14.00;1.00
6496;DHT22;3281;47.658;9.166;2023-06-01T03:56:07;14.10;1.00
6496;DHT22;3281;47.658;9.166;2023-06-01T03:58:34;14.10;1.00
6496;DHT22;3281;47.658;9.166;2023-06-01T04:01:02;14.10;1.00
6496;DHT22;3281;47.658;9.166;2023-06-01T04:03:31;14.00;1.00
6496;DHT22;3281;47.658;9.166;2023-06-01T04:05:58;14.10;1.00
6496;DHT22;3281;47.658;9.166;2023-06-01T04:08:25;14.00;1.00
6496;DHT22;3281;47.658;9.166;2023-06-01T04:10:52;14.00;1.00
6496;DHT22;3281;47.658;9.166;2023-06-01T04:13:19;14.10;1.00
6496;DHT22;3281;47.658;9.166;2023-06-01T04:15:46;14.10;1.00
6496;DHT22;3281;47.658;9.166;2023-06-01T04:18:14;14.10;1.00
6496;DHT22;3281;47.658;9.166;2023-06-01T04:20:41;14.00;1.00
6496;DHT22;3281;47.658;9.166;2023-06-01T04:23:08;14.10;1.00
6496;DHT22;3281;47.658;9.166;2023-06-01T04:25:34;14.10;1.00
6496;DHT22;3281;47.658;9.166;2023-06-01T04:28:01;14.00;1.00
6496;DHT22;3281;47.658;9.166;2023-06-01T04:30:28;14.00;1.00
6496;DHT22;3281;47.658;9.166;2023-06-01T04:32:55;14.10;1.00
6496;DHT22;3281;47.658;9.166;2023-06-01T04:35:23;14.30;1.00
6496;DHT22;3281;47.658;9.166;2023-06-01T04:37:50;14.30;1.00
6496;DHT22;3281;47.658;9.166;2023-06-01T04:40:16;14.30;1.00
6496;DHT22;3281;47.658;9.166;2023-06-01T04:42:44;14.30;1.00
6496;DHT22;3281;47.658;9.166;2023-06-01T04:45:14;14.30;1.00
6496;DHT22;3281;47.658;9.166;2023-06-01T04:47:41;14.40;1.00
6496;DHT22;3281;47.658;9.166;2023-06-01T04:50:11;14.60;1.00
6496;DHT22;3281;47.658;9.166;2023-06-01T04:52:40;14.60;1.00
6496;DHT22;3281;47.658;9.166;2023-06-01T04:55:08;14.60;1.00
6496;DHT22;3281;47.658;9.166;2023-06-01T04:57:35;14.70;1.00
6496;DHT22;3281;47.658;9.166;2023-06-01T05:00:05;14.70;1.00
6496;DHT22;3281;47.658;9.166;2023-06-01T05:02:36;14.70;1.00
6496;DHT22;3281;47.658;9.166;2023-06-01T05:05:03;14.70;1.00
6496;DHT22;3281;47.658;9.166;2023-06-01T05:07:31;14.80;1.00
6496;DHT22;3281;47.658;9.166;2023-06-01T05:09:59;14.90;1.00
6496;DHT22;3281;47.658;9.166;2023-06-01T05:12:30;14.90;1.00
6496;DHT22;3281;47.658;9.166;2023-06-01T05:14:56;15.00;1.00
6496;DHT22;3281;47.658;9.166;2023-06-01T05:17:23;15.20;1.00
6496;DHT22;3281;47.658;9.166;2023-06-01T05:19:49;15.10;1.00
6496;DHT22;3281;47.658;9.166;2023-06-01T05:22:16;15.20;1.00
6496;DHT22;3281;47.658;9.166;2023-06-01T05:24:43;15.30;1.00
6496;DHT22;3281;47.658;9.166;2023-06-01T05:27:11;15.40;1.00
6496;DHT22;3281;47.658;9.166;2023-06-01T05:29:38;15.50;1.00
6496;DHT22;3281;47.658;9.166;2023-06-01T05:32:06;15.60;1.00
6496;DHT22;3281;47.658;9.166;2023-06-01T05:34:33;15.70;1.00
6496;DHT22;3281;47.658;9.166;2023-06-01T05:37:00;15.80;1.00
6496;DHT22;3281;47.658;9.166;2023-06-01T05:39:27;15.80;1.00
6496;DHT22;3281;47.658;9.166;2023-06-01T05:41:54;15.90;1.00
6496;DHT22;3281;47.658;9.166;2023-06-01T05:44:22;16.00;1.00
6496;DHT22;3281;47.658;9.166;2023-06-01T05:46:49;16.10;1.00
6496;DHT22;3281;47.658;9.166;2023-06-01T05:49:16;16.20;1.00
6496;DHT22;3281;47.658;9.166;2023-06-01T05:51:43;16.30;1.00
6496;DHT22;3281;47.658;9.166;2023-06-01T05:54:11;16.40;1.00
6496;DHT22;3281;47.658;9.166;2023-06-01T05:56:38;16.40;1.00
6496;DHT22;3281;47.658;9.166;2023-06-01T05:59:05;16.50;1.00
6496;DHT22;3281;47.658;9.166;2023-06-01T06:01:34;16.60;1.00
6496;DHT22;3281;47.658;9.166;2023-06-01T06:04:01;16.60;1.00
6496;DHT22;3281;47.658;9.166;2023-06-01T06:06:28;16.70;1.00
6496;DHT22;3281;47.658;9.166;2023-06-01T06:08:56;16.80;1.00
6496;DHT22;3281;47.658;9.166;2023-06-01T06:11:22;16.80;1.00
6496;DHT22;3281;47.658;9.166;2023-06-01T06:13:49;16.90;1.00
6496;DHT22;3281;47.658;9.166;2023-06-01T06:16:16;16.90;1.00
6496;DHT22;3281;47.658;9.166;2023-06-01T06:18:44;17.00;1.00
6496;DHT22;3281;47.658;9.166;2023-06-01T06:21:10;17.10;1.00
6496;DHT22;3281;47.658;9.166;2023-06-01T06:23:37;17.10;1.00
6496;DHT22;3281;47.658;9.166;2023-06-01T06:26:05;17.20;1.00
6496;DHT22;3281;47.658;9.166;2023-06-01T06:28:32;17.20;1.00
6496;DHT22;3281;47.658;9.166;2023-06-01T06:30:59;17.30;1.00
6496;DHT22;3281;47.658;9.166;2023-06-01T06:33:25;17.30;1.00
6496;DHT22;3281;47.658;9.166;2023-06-01T06:35:53;17.40;1.00
6496;DHT22;3281;47.658;9.166;2023-06-01T06:38:20;17.40;1.00
6496;DHT22;3281;47.658;9.166;2023-06-01T06:40:47;17.40;1.00
6496;DHT22;3281;47.658;9.166;2023-06-01T06:43:14;17.40;1.00
6496;DHT22;3281;47.658;9.166;2023-06-01T06:45:41;17.60;1.00
6496;DHT22;3281;47.658;9.166;2023-06-01T06:48:08;17.60;1.00
6496;DHT22;3281;47.658;9.166;2023-06-01T06:50:34;17.60;1.00
6496;DHT22;3281;47.658;9.166;2023-06-01T06:53:03;17.70;1.00
6496;DHT22;3281;47.658;9.166;2023-06-01T06:55:30;17.70;1.00
6496;DHT22;3281;47.658;9.166;2023-06-01T06:57:57;17.80;1.00
6496;DHT22;3281;47.658;9.166;2023-06-01T07:00:24;17.80;1.00
6496;DHT22;3281;47.658;9.166;2023-06-01T07:02:51;17.90;1.00
6496;DHT22;3281;47.658;9.166;2023-06-01T07:05:18;17.90;1.00
6496;DHT22;3281;47.658;9.166;2023-06-01T07:07:45;17.90;1.00
6496;DHT22;3281;47.658;9.166;2023-06-01T07:10:13;18.00;1.00
6496;DHT22;3281;47.658;9.166;2023-06-01T07:12:41;18.00;1.00
6496;DHT22;3281;47.658;9.166;2023-06-01T07:15:08;18.00;1.00
6496;DHT22;3281;47.658;9.166;2023-06-01T07:17:35;18.10;1.00
6496;DHT22;3281;47.658;9.166;2023-06-01T07:20:03;18.10;1.00
6496;DHT22;3281;47.658;9.166;2023-06-01T07:22:31;18.20;1.00
6496;DHT22;3281;47.658;9.166;2023-06-01T07:24:58;18.30;1.00
6496;DHT22;3281;47.658;9.166;2023-06-01T07:27:26;18.30;1.00
6496;DHT22;3281;47.658;9.166;2023-06-01T07:29:53;18.30;1.00
6496;DHT22;3281;47.658;9.166;2023-06-01T07:32:21;18.40;1.00
6496;DHT22;3281;47.658;9.166;2023-06-01T07:34:48;18.40;1.00
6496;DHT22;3281;47.658;9.166;2023-06-01T07:37:14;18.50;1.00
6496;DHT22;3281;47.658;9.166;2023-06-01T07:39:41;18.50;1.00
6496;DHT22;3281;47.658;9.166;2023-06-01T07:42:08;18.60;1.00
6496;DHT22;3281;47.658;9.166;2023-06-01T07:44:36;18.60;1.00
6496;DHT22;3281;47.658;9.166;2023-06-01T07:47:04;18.70;1.00
6496;DHT22;3281;47.658;9.166;2023-06-01T07:49:31;18.80;1.00
6496;DHT22;3281;47.658;9.166;2023-06-01T07:52:00;18.90;1.00
6496;DHT22;3281;47.658;9.166;2023-06-01T07:54:27;18.90;1.00
6496;DHT22;3281;47.658;9.166;2023-06-01T07:56:54;19.00;1.00
6496;DHT22;3281;47.658;9.166;2023-06-01T07:59:22;18.90;1.00
6496;DHT22;3281;47.658;9.166;2023-06-01T08:01:50;18.90;1.00
6496;DHT22;3281;47.658;9.166;2023-06-01T08:04:17;19.10;1.00
6496;DHT22;3281;47.658;9.166;2023-06-01T08:06:46;19.20;1.00
6496;DHT22;3281;47.658;9.166;2023-06-01T08:09:13;19.20;1.00
6496;DHT22;3281;47.658;9.166;2023-06-01T08:11:39;19.30;1.00
6496;DHT22;3281;47.658;9.166;2023-06-01T08:14:06;19.40;1.00
6496;DHT22;3281;47.658;9.166;2023-06-01T08:16:34;19.40;1.00
6496;DHT22;3281;47.658;9.166;2023-06-01T08:19:03;19.50;1.00
6496;DHT22;3281;47.658;9.166;2023-06-01T08:21:29;19.50;1.00
6496;DHT22;3281;47.658;9.166;2023-06-01T08:23:57;19.60;1.00
6496;DHT22;3281;47.658;9.166;2023-06-01T08:26:24;19.60;1.00
6496;DHT22;3281;47.658;9.166;2023-06-01T08:28:51;19.70;1.00
6496;DHT22;3281;47.658;9.166;2023-06-01T08:31:18;19.70;1.00
6496;DHT22;3281;47.658;9.166;2023-06-01T08:33:45;19.90;1.00
6496;DHT22;3281;47.658;9.166;2023-06-01T08:36:14;19.90;1.00
6496;DHT22;3281;47.658;9.166;2023-06-01T08:38:41;20.00;1.00
6496;DHT22;3281;47.658;9.166;2023-06-01T08:41:14;20.10;1.00
6496;DHT22;3281;47.658;9.166;2023-06-01T08:43:45;20.20;1.00
6496;DHT22;3281;47.658;9.166;2023-06-01T08:46:16;20.20;1.00
6496;DHT22;3281;47.658;9.166;2023-06-01T08:48:43;20.30;1.00
6496;DHT22;3281;47.658;9.166;2023-06-01T08:51:11;20.30;1.00
6496;DHT22;3281;47.658;9.166;2023-06-01T08:53:39;20.30;1.00
6496;DHT22;3281;47.658;9.166;2023-06-01T08:56:08;20.40;1.00
6496;DHT22;3281;47.658;9.166;2023-06-01T08:58:35;20.50;1.00
6496;DHT22;3281;47.658;9.166;2023-06-01T09:01:02;20.50;1.00
6496;DHT22;3281;47.658;9.166;2023-06-01T09:03:29;20.50;1.00
6496;DHT22;3281;47.658;9.166;2023-06-01T09:05:56;20.60;1.00
6496;DHT22;3281;47.658;9.166;2023-06-01T09:08:23;20.60;1.00
6496;DHT22;3281;47.658;9.166;2023-06-01T09:10:52;20.60;1.00
6496;DHT22;3281;47.658;9.166;2023-06-01T09:13:30;20.70;1.00
6496;DHT22;3281;47.658;9.166;2023-06-01T09:15:57;20.70;1.00
6496;DHT22;3281;47.658;9.166;2023-06-01T09:18:24;20.80;1.00
6496;DHT22;3281;47.658;9.166;2023-06-01T09:20:51;20.90;1.00
6496;DHT22;3281;47.658;9.166;2023-06-01T09:23:26;20.90;1.00
6496;DHT22;3281;47.658;9.166;2023-06-01T09:26:06;20.90;1.00
6496;DHT22;3281;47.658;9.166;2023-06-01T09:28:51;21.00;1.00
6496;DHT22;3281;47.658;9.166;2023-06-01T09:31:36;21.10;1.00
6496;DHT22;3281;47.658;9.166;2023-06-01T09:34:04;21.20;1.00
6496;DHT22;3281;47.658;9.166;2023-06-01T09:36:32;21.30;1.00
6496;DHT22;3281;47.658;9.166;2023-06-01T09:39:03;21.30;1.00
6496;DHT22;3281;47.658;9.166;2023-06-01T09:41:49;21.50;1.00
6496;DHT22;3281;47.658;9.166;2023-06-01T09:44:26;21.80;1.00
6496;DHT22;3281;47.658;9.166;2023-06-01T09:46:54;21.90;1.00
6496;DHT22;3281;47.658;9.166;2023-06-01T09:49:23;22.00;1.00
6496;DHT22;3281;47.658;9.166;2023-06-01T09:51:52;22.20;1.00
6496;DHT22;3281;47.658;9.166;2023-06-01T09:54:23;22.70;1.00
6496;DHT22;3281;47.658;9.166;2023-06-01T09:56:52;23.30;1.00
6496;DHT22;3281;47.658;9.166;2023-06-01T09:59:20;24.20;1.00
6496;DHT22;3281;47.658;9.166;2023-06-01T10:01:50;25.00;1.00
6496;DHT22;3281;47.658;9.166;2023-06-01T10:04:20;25.80;1.00
6496;DHT22;3281;47.658;9.166;2023-06-01T10:06:48;26.60;1.00
6496;DHT22;3281;47.658;9.166;2023-06-01T10:09:17;26.90;1.00
6496;DHT22;3281;47.658;9.166;2023-06-01T10:11:45;27.40;1.00
6496;DHT22;3281;47.658;9.166;2023-06-01T10:14:14;27.50;1.00
6496;DHT22;3281;47.658;9.166;2023-06-01T10:16:41;27.60;1.00
6496;DHT22;3281;47.658;9.166;2023-06-01T10:19:08;27.80;1.00
6496;DHT22;3281;47.658;9.166;2023-06-01T10:21:35;28.50;1.00
6496;DHT22;3281;47.658;9.166;2023-06-01T10:24:03;28.90;1.00
6496;DHT22;3281;47.658;9.166;2023-06-01T10:26:35;29.00;1.00
6496;DHT22;3281;47.658;9.166;2023-06-01T10:29:02;29.10;1.00
6496;DHT22;3281;47.658;9.166;2023-06-01T10:31:35;29.10;1.00
6496;DHT22;3281;47.658;9.166;2023-06-01T10:34:02;29.60;1.00
6496;DHT22;3281;47.658;9.166;2023-06-01T10:39:36;29.80;1.00
6496;DHT22;3281;47.658;9.166;2023-06-01T10:42:34;30.30;1.00
6496;DHT22;3281;47.658;9.166;2023-06-01T10:45:01;30.40;1.00
6496;DHT22;3281;47.658;9.166;2023-06-01T10:47:48;30.30;1.00
6496;DHT22;3281;47.658;9.166;2023-06-01T10:50:16;30.30;1.00
6496;DHT22;3281;47.658;9.166;2023-06-01T10:52:43;30.30;1.00
6496;DHT22;3281;47.658;9.166;2023-06-01T10:55:26;30.50;1.00
6496;DHT22;3281;47.658;9.166;2023-06-01T11:00:54;31.20;1.00
6496;DHT22;3281;47.658;9.166;2023-06-01T11:03:45;31.30;1.00
6496;DHT22;3281;47.658;9.166;2023-06-01T11:06:25;30.90;1.00
6496;DHT22;3281;47.658;9.166;2023-06-01T11:08:59;31.20;1.00
6496;DHT22;3281;47.658;9.166;2023-06-01T11:11:57;30.70;1.00
6496;DHT22;3281;47.658;9.166;2023-06-01T11:14:26;30.90;1.00
6496;DHT22;3281;47.658;9.166;2023-06-01T11:16:55;31.00;1.00
6496;DHT22;3281;47.658;9.166;2023-06-01T11:19:26;30.90;1.00
6496;DHT22;3281;47.658;9.166;2023-06-01T11:21:57;30.60;1.00
6496;DHT22;3281;47.658;9.166;2023-06-01T11:24:31;30.20;1.00
6496;DHT22;3281;47.658;9.166;2023-06-01T11:27:04;29.60;1.00
6496;DHT22;3281;47.658;9.166;2023-06-01T11:29:33;29.70;1.00
6496;DHT22;3281;47.658;9.166;2023-06-01T11:32:01;29.60;1.00
6496;DHT22;3281;47.658;9.166;2023-06-01T11:34:31;29.50;1.00
6496;DHT22;3281;47.658;9.166;2023-06-01T11:36:59;29.10;1.00
6496;DHT22;3281;47.658;9.166;2023-06-01T11:39:28;28.20;1.00
6496;DHT22;3281;47.658;9.166;2023-06-01T11:42:04;27.50;1.00
6496;DHT22;3281;47.658;9.166;2023-06-01T11:44:32;26.80;1.00
6496;DHT22;3281;47.658;9.166;2023-06-01T11:46:59;26.40;1.00
6496;DHT22;3281;47.658;9.166;2023-06-01T11:49:26;26.00;1.00
6496;DHT22;3281;47.658;9.166;2023-06-01T11:51:55;25.60;1.00
6496;DHT22;3281;47.658;9.166;2023-06-01T11:54:24;25.10;1.00
6496;DHT22;3281;47.658;9.166;2023-06-01T11:56:52;25.10;1.00
6496;DHT22;3281;47.658;9.166;2023-06-01T11:59:21;24.90;1.00
6496;DHT22;3281;47.658;9.166;2023-06-01T12:01:49;24.50;1.00
6496;DHT22;3281;47.658;9.166;2023-06-01T12:04:20;24.40;1.00
6496;DHT22;3281;47.658;9.166;2023-06-01T12:06:46;24.30;1.00
6496;DHT22;3281;47.658;9.166;2023-06-01T12:09:16;24.30;1.00
6496;DHT22;3281;47.658;9.166;2023-06-01T12:11:43;24.30;1.00
6496;DHT22;3281;47.658;9.166;2023-06-01T12:14:11;24.30;1.00
6496;DHT22;3281;47.658;9.166;2023-06-01T12:16:54;24.30;1.00
6496;DHT22;3281;47.658;9.166;2023-06-01T12:19:22;24.40;1.00
6496;DHT22;3281;47.658;9.166;2023-06-01T12:21:49;24.30;1.00
6496;DHT22;3281;47.658;9.166;2023-06-01T12:24:18;24.30;1.00
6496;DHT22;3281;47.658;9.166;2023-06-01T12:26:45;24.20;1.00
6496;DHT22;3281;47.658;9.166;2023-06-01T12:29:11;24.20;1.00
6496;DHT22;3281;47.658;9.166;2023-06-01T12:31:38;24.20;1.00
6496;DHT22;3281;47.658;9.166;2023-06-01T12:34:15;24.20;1.00
6496;DHT22;3281;47.658;9.166;2023-06-01T12:36:42;24.20;1.00
6496;DHT22;3281;47.658;9.166;2023-06-01T12:39:09;24.10;1.00
6496;DHT22;3281;47.658;9.166;2023-06-01T12:41:46;24.20;1.00
6496;DHT22;3281;47.658;9.166;2023-06-01T12:44:18;24.20;1.00
6496;DHT22;3281;47.658;9.166;2023-06-01T12:46:45;24.30;1.00
6496;DHT22;3281;47.658;9.166;2023-06-01T12:49:13;24.20;1.00
6496;DHT22;3281;47.658;9.166;2023-06-01T12:51:40;24.30;1.00
6496;DHT22;3281;47.658;9.166;2023-06-01T12:54:07;24.20;1.00
6496;DHT22;3281;47.658;9.166;2023-06-01T12:56:33;24.10;1.00
6496;DHT22;3281;47.658;9.166;2023-06-01T12:59:01;24.10;1.00
6496;DHT22;3281;47.658;9.166;2023-06-01T13:01:28;24.20;1.00
6496;DHT22;3281;47.658;9.166;2023-06-01T13:03:55;24.20;1.00
6496;DHT22;3281;47.658;9.166;2023-06-01T13:06:23;24.20;1.00
6496;DHT22;3281;47.658;9.166;2023-06-01T13:08:49;24.30;1.00
6496;DHT22;3281;47.658;9.166;2023-06-01T13:11:17;24.20;1.00
6496;DHT22;3281;47.658;9.166;2023-06-01T13:13:44;24.20;1.00
6496;DHT22;3281;47.658;9.166;2023-06-01T13:16:13;24.20;1.00
6496;DHT22;3281;47.658;9.166;2023-06-01T13:18:40;24.20;1.00
6496;DHT22;3281;47.658;9.166;2023-06-01T13:21:07;24.30;1.00
6496;DHT22;3281;47.658;9.166;2023-06-01T13:23:33;24.30;1.00
6496;DHT22;3281;47.658;9.166;2023-06-01T13:26:00;24.20;1.00
6496;DHT22;3281;47.658;9.166;2023-06-01T13:28:27;24.30;1.00
6496;DHT22;3281;47.658;9.166;2023-06-01T13:30:53;24.40;1.00
6496;DHT22;3281;47.658;9.166;2023-06-01T13:33:22;24.50;1.00
6496;DHT22;3281;47.658;9.166;2023-06-01T13:35:49;24.50;1.00
6496;DHT22;3281;47.658;9.166;2023-06-01T13:38:15;24.50;1.00
6496;DHT22;3281;47.658;9.166;2023-06-01T13:40:42;24.50;1.00
6496;DHT22;3281;47.658;9.166;2023-06-01T13:43:09;24.60;1.00
6496;DHT22;3281;47.658;9.166;2023-06-01T13:45:35;24.70;1.00
6496;DHT22;3281;47.658;9.166;2023-06-01T13:48:02;24.80;1.00
6496;DHT22;3281;47.658;9.166;2023-06-01T13:50:30;25.00;1.00
6496;DHT22;3281;47.658;9.166;2023-06-01T13:52:57;25.10;1.00
6496;DHT22;3281;47.658;9.166;2023-06-01T13:55:24;25.00;1.00
6496;DHT22;3281;47.658;9.166;2023-06-01T13:57:53;24.90;1.00
6496;DHT22;3281;47.658;9.166;2023-06-01T14:00:20;24.70;1.00
6496;DHT22;3281;47.658;9.166;2023-06-01T14:02:46;24.70;1.00
6496;DHT22;3281;47.658;9.166;2023-06-01T14:05:13;24.80;1.00
6496;DHT22;3281;47.658;9.166;2023-06-01T14:07:42;24.90;1.00
6496;DHT22;3281;47.658;9.166;2023-06-01T14:10:09;25.20;1.00
6496;DHT22;3281;47.658;9.166;2023-06-01T14:12:36;25.10;1.00
6496;DHT22;3281;47.658;9.166;2023-06-01T14:15:03;25.10;1.00
6496;DHT22;3281;47.658;9.166;2023-06-01T14:17:31;25.10;1.00
6496;DHT22;3281;47.658;9.166;2023-06-01T14:19:57;25.10;1.00
6496;DHT22;3281;47.658;9.166;2023-06-01T14:22:24;25.00;1.00
6496;DHT22;3281;47.658;9.166;2023-06-01T14:24:52;25.00;1.00
6496;DHT22;3281;47.658;9.166;2023-06-01T14:27:18;25.10;1.00
6496;DHT22;3281;47.658;9.166;2023-06-01T14:29:45;25.00;1.00
6496;DHT22;3281;47.658;9.166;2023-06-01T14:32:12;24.90;1.00
6496;DHT22;3281;47.658;9.166;2023-06-01T14:34:39;24.90;1.00
6496;DHT22;3281;47.658;9.166;2023-06-01T14:37:06;24.60;1.00
6496;DHT22;3281;47.658;9.166;2023-06-01T14:39:36;24.30;1.00
6496;DHT22;3281;47.658;9.166;2023-06-01T14:42:05;24.40;1.00
6496;DHT22;3281;47.658;9.166;2023-06-01T14:44:32;24.50;1.00
6496;DHT22;3281;47.658;9.166;2023-06-01T14:46:59;24.50;1.00
6496;DHT22;3281;47.658;9.166;2023-06-01T14:49:25;24.60;1.00
6496;DHT22;3281;47.658;9.166;2023-06-01T14:51:53;24.60;1.00
6496;DHT22;3281;47.658;9.166;2023-06-01T14:54:19;24.50;1.00
6496;DHT22;3281;47.658;9.166;2023-06-01T14:56:46;24.60;1.00
6496;DHT22;3281;47.658;9.166;2023-06-01T14:59:14;24.60;1.00
6496;DHT22;3281;47.658;9.166;2023-06-01T15:01:41;24.60;1.00
6496;DHT22;3281;47.658;9.166;2023-06-01T15:04:08;24.70;1.00
6496;DHT22;3281;47.658;9.166;2023-06-01T15:06:34;24.70;1.00
6496;DHT22;3281;47.658;9.166;2023-06-01T15:09:02;24.70;1.00
6496;DHT22;3281;47.658;9.166;2023-06-01T15:11:29;24.70;1.00
6496;DHT22;3281;47.658;9.166;2023-06-01T15:13:56;24.70;1.00
6496;DHT22;3281;47.658;9.166;2023-06-01T15:16:24;24.70;1.00
6496;DHT22;3281;47.658;9.166;2023-06-01T15:18:53;24.60;1.00
6496;DHT22;3281;47.658;9.166;2023-06-01T15:21:19;24.60;1.00
6496;DHT22;3281;47.658;9.166;2023-06-01T15:23:46;24.60;1.00
6496;DHT22;3281;47.658;9.166;2023-06-01T15:26:13;24.50;1.00
6496;DHT22;3281;47.658;9.166;2023-06-01T15:28:39;24.50;1.00
6496;DHT22;3281;47.658;9.166;2023-06-01T15:31:07;24.50;1.00
6496;DHT22;3281;47.658;9.166;2023-06-01T15:33:35;24.50;1.00
6496;DHT22;3281;47.658;9.166;2023-06-01T15:36:01;24.40;1.00
6496;DHT22;3281;47.658;9.166;2023-06-01T15:38:28;24.30;1.00
6496;DHT22;3281;47.658;9.166;2023-06-01T15:40:55;24.30;1.00
6496;DHT22;3281;47.658;9.166;2023-06-01T15:43:22;24.30;1.00
6496;DHT22;3281;47.658;9.166;2023-06-01T15:45:49;24.20;1.00
6496;DHT22;3281;47.658;9.166;2023-06-01T15:48:16;24.20;1.00
6496;DHT22;3281;47.658;9.166;2023-06-01T15:50:44;24.30;1.00
6496;DHT22;3281;47.658;9.166;2023-06-01T15:53:11;24.20;1.00
6496;DHT22;3281;47.658;9.166;2023-06-01T15:55:38;24.30;1.00
6496;DHT22;3281;47.658;9.166;2023-06-01T15:58:05;24.20;1.00
6496;DHT22;3281;47.658;9.166;2023-06-01T16:00:31;24.10;1.00
6496;DHT22;3281;47.658;9.166;2023-06-01T16:02:58;24.00;1.00
6496;DHT22;3281;47.658;9.166;2023-06-01T16:05:25;24.00;1.00
6496;DHT22;3281;47.658;9.166;2023-06-01T16:07:53;23.90;1.00
6496;DHT22;3281;47.658;9.166;2023-06-01T16:10:20;23.80;1.00
6496;DHT22;3281;47.658;9.166;2023-06-01T16:12:47;23.70;1.00
6496;DHT22;3281;47.658;9.166;2023-06-01T16:15:13;23.70;1.00
6496;DHT22;3281;47.658;9.166;2023-06-01T16:17:40;23.60;1.00
6496;DHT22;3281;47.658;9.166;2023-06-01T16:20:07;23.50;1.00
6496;DHT22;3281;47.658;9.166;2023-06-01T16:22:34;23.50;1.00
6496;DHT22;3281;47.658;9.166;2023-06-01T16:25:02;23.70;1.00
6496;DHT22;3281;47.658;9.166;2023-06-01T16:27:29;23.80;1.00
6496;DHT22;3281;47.658;9.166;2023-06-01T16:29:56;23.80;1.00